createdAt,value
2018-09-08T00:01:06.455Z,15.80
2018-09-08T00:03:33.997Z,15.80
2018-09-08T00:06:01.626Z,15.80
2018-09-08T00:08:29.160Z,15.80
2018-09-08T00:10:56.733Z,15.90
2018-09-08T00:13:24.298Z,15.90
2018-09-08T00:15:57.430Z,16.00
2018-09-08T00:18:30.654Z,16.00
2018-09-08T00:21:03.917Z,16.00
2018-09-08T00:23:37.250Z,16.10
2018-09-08T00:26:10.550Z,16.00
2018-09-08T00:28:53.067Z,16.00
2018-09-08T00:31:20.659Z,16.00
2018-09-08T00:33:48.671Z,16.00
2018-09-08T00:36:16.849Z,16.00
2018-09-08T00:38:44.399Z,16.00
2018-09-08T00:41:11.996Z,16.00
2018-09-08T00:43:39.608Z,16.00
2018-09-08T00:46:08.111Z,16.10
2018-09-08T00:48:35.899Z,16.10
2018-09-08T00:51:03.458Z,16.10
2018-09-08T00:53:31.021Z,16.10
2018-09-08T00:55:58.644Z,16.20
2018-09-08T00:58:26.265Z,16.20
2018-09-08T01:00:53.825Z,16.10
2018-09-08T01:03:21.400Z,16.10
2018-09-08T01:05:49.007Z,16.00
2018-09-08T01:08:16.554Z,16.00
2018-09-08T01:10:44.226Z,15.90
2018-09-08T01:13:11.770Z,15.90
2018-09-08T01:15:39.464Z,15.90
2018-09-08T01:18:07.130Z,15.80
2018-09-08T01:20:34.676Z,15.80
2018-09-08T01:23:02.235Z,15.80
2018-09-08T01:25:29.852Z,15.80
2018-09-08T01:27:57.412Z,15.80
2018-09-08T01:30:25.014Z,15.80
2018-09-08T01:32:52.532Z,15.80
2018-09-08T01:35:20.101Z,15.90
2018-09-08T01:37:47.637Z,15.90
2018-09-08T01:40:15.182Z,15.90
2018-09-08T01:42:42.886Z,15.90
2018-09-08T01:45:10.422Z,15.90
2018-09-08T01:47:37.984Z,15.90
2018-09-08T01:50:05.655Z,15.90
2018-09-08T01:52:33.208Z,15.90
2018-09-08T01:55:00.744Z,15.90
2018-09-08T01:57:28.301Z,15.90
2018-09-08T01:59:55.962Z,15.90
2018-09-08T02:02:23.652Z,15.90
2018-09-08T02:04:51.450Z,15.90
2018-09-08T02:07:19.000Z,15.80
2018-09-08T02:09:46.536Z,15.80
2018-09-08T02:12:14.139Z,15.90
2018-09-08T02:14:41.706Z,15.90
2018-09-08T02:17:09.372Z,15.80
2018-09-08T02:19:36.936Z,15.80
2018-09-08T02:22:04.540Z,15.80
2018-09-08T02:24:32.092Z,15.80
2018-09-08T02:26:59.682Z,15.80
2018-09-08T02:29:27.258Z,15.90
2018-09-08T02:31:54.804Z,15.90
2018-09-08T02:34:22.326Z,15.90
2018-09-08T02:36:49.867Z,15.90
2018-09-08T02:39:17.447Z,15.90
2018-09-08T02:41:45.029Z,15.90
2018-09-08T02:44:12.606Z,15.90
2018-09-08T02:46:40.211Z,15.80
2018-09-08T02:49:07.770Z,15.80
2018-09-08T02:51:34.245Z,15.70
2018-09-08T02:54:00.722Z,15.70
2018-09-08T02:56:27.208Z,15.60
2018-09-08T02:58:53.708Z,15.60
2018-09-08T03:01:20.173Z,15.70
2018-09-08T03:03:46.664Z,15.70
2018-09-08T03:06:13.158Z,15.70
2018-09-08T03:08:39.630Z,15.70
2018-09-08T03:11:06.104Z,15.70
2018-09-08T03:13:32.591Z,15.80
2018-09-08T03:15:59.062Z,15.80
2018-09-08T03:18:25.565Z,15.80
2018-09-08T03:20:52.037Z,15.70
2018-09-08T03:23:18.613Z,15.70
2018-09-08T03:25:45.097Z,15.70
2018-09-08T03:28:11.567Z,15.70
2018-09-08T03:30:38.072Z,15.70
2018-09-08T03:33:04.547Z,15.70
2018-09-08T03:35:31.012Z,15.60
2018-09-08T03:37:57.497Z,15.60
2018-09-08T03:40:23.965Z,15.60
2018-09-08T03:42:50.446Z,15.60
2018-09-08T03:45:16.892Z,15.50
2018-09-08T03:47:43.366Z,15.50
2018-09-08T03:50:09.848Z,15.50
2018-09-08T03:52:36.307Z,15.50
2018-09-08T03:55:02.783Z,15.40
2018-09-08T03:57:29.246Z,15.30
2018-09-08T03:59:55.734Z,15.30
2018-09-08T04:02:22.222Z,15.20
2018-09-08T04:04:49.770Z,15.20
2018-09-08T04:07:17.324Z,15.20
2018-09-08T04:09:44.881Z,15.30
2018-09-08T04:12:12.430Z,15.50
2018-09-08T04:14:39.949Z,15.70
2018-09-08T04:17:07.455Z,15.90
2018-09-08T04:19:35.046Z,16.10
2018-09-08T04:22:02.585Z,16.20
2018-09-08T04:24:30.192Z,16.30
2018-09-08T04:26:57.796Z,16.40
2018-09-08T04:29:25.434Z,16.40
2018-09-08T04:31:52.961Z,16.50
2018-09-08T04:34:20.536Z,16.50
2018-09-08T04:36:48.102Z,16.60
2018-09-08T04:39:15.695Z,16.70
2018-09-08T04:41:43.268Z,16.80
2018-09-08T04:44:10.821Z,16.80
2018-09-08T04:46:38.407Z,16.90
2018-09-08T04:49:05.971Z,16.90
2018-09-08T04:51:33.500Z,16.90
2018-09-08T04:54:01.040Z,17.00
2018-09-08T04:56:28.592Z,17.00
2018-09-08T04:58:56.095Z,17.00
2018-09-08T05:01:23.712Z,17.00
2018-09-08T05:03:51.286Z,16.70
2018-09-08T05:06:18.829Z,16.40
2018-09-08T05:08:46.351Z,16.10
2018-09-08T05:11:13.892Z,15.90
2018-09-08T05:13:41.417Z,15.70
2018-09-08T05:16:08.963Z,15.60
2018-09-08T05:18:36.523Z,15.50
2018-09-08T05:21:04.091Z,15.30
2018-09-08T05:23:31.629Z,15.40
2018-09-08T05:25:59.175Z,15.50
2018-09-08T05:28:26.686Z,15.60
2018-09-08T05:30:54.232Z,15.60
2018-09-08T05:33:21.789Z,15.50
2018-09-08T05:35:49.367Z,15.50
2018-09-08T05:38:16.877Z,15.50
2018-09-08T05:40:44.465Z,15.60
2018-09-08T05:43:12.036Z,15.60
2018-09-08T05:45:39.569Z,15.60
2018-09-08T05:48:07.207Z,15.70
2018-09-08T05:50:34.772Z,15.80
2018-09-08T05:53:02.352Z,15.80
2018-09-08T05:55:30.265Z,15.90
2018-09-08T05:57:57.821Z,15.90
2018-09-08T06:00:25.410Z,16.00
2018-09-08T06:02:52.968Z,16.00
2018-09-08T06:05:20.513Z,16.10
2018-09-08T06:07:48.177Z,16.10
2018-09-08T06:10:15.768Z,16.10
2018-09-08T06:12:43.348Z,16.10
2018-09-08T06:15:10.931Z,16.20
2018-09-08T06:17:38.519Z,16.20
2018-09-08T06:20:06.102Z,16.30
2018-09-08T06:22:33.666Z,16.30
2018-09-08T06:25:01.192Z,16.30
2018-09-08T06:27:28.724Z,16.30
2018-09-08T06:29:56.332Z,16.30
2018-09-08T06:32:23.891Z,16.30
2018-09-08T06:34:51.436Z,16.40
2018-09-08T06:37:18.979Z,16.40
2018-09-08T06:39:46.528Z,16.50
2018-09-08T06:42:14.156Z,16.60
2018-09-08T06:44:41.824Z,16.60
2018-09-08T06:47:09.408Z,16.60
2018-09-08T06:49:36.950Z,16.60
2018-09-08T06:52:04.658Z,16.70
2018-09-08T06:54:32.190Z,16.60
2018-09-08T06:56:59.728Z,16.50
2018-09-08T06:59:27.318Z,16.50
2018-09-08T07:01:54.839Z,16.30
2018-09-08T07:04:22.456Z,16.30
2018-09-08T07:06:49.952Z,16.20
2018-09-08T07:09:17.525Z,16.30
2018-09-08T07:11:45.358Z,16.40
2018-09-08T07:14:12.912Z,16.50
2018-09-08T07:16:40.454Z,16.40
2018-09-08T07:19:08.084Z,16.40
2018-09-08T07:21:35.618Z,16.30
2018-09-08T07:24:03.196Z,16.30
2018-09-08T07:26:30.765Z,16.30
2018-09-08T07:28:58.343Z,16.30
2018-09-08T07:31:25.873Z,16.20
2018-09-08T07:33:53.403Z,16.30
2018-09-08T07:36:20.980Z,16.30
2018-09-08T07:38:48.521Z,16.30
2018-09-08T07:41:16.080Z,16.40
2018-09-08T07:43:43.621Z,16.40
2018-09-08T07:46:11.230Z,16.50
2018-09-08T07:48:38.790Z,16.50
2018-09-08T07:51:06.509Z,16.60
2018-09-08T07:53:34.175Z,16.60
2018-09-08T07:56:01.993Z,16.60
2018-09-08T07:58:29.599Z,16.60
2018-09-08T08:00:57.205Z,16.70
2018-09-08T08:03:24.743Z,16.70
2018-09-08T08:05:52.324Z,16.80
2018-09-08T08:08:19.881Z,17.00
2018-09-08T08:10:47.471Z,17.20
2018-09-08T08:13:15.093Z,17.40
2018-09-08T08:15:42.693Z,17.50
2018-09-08T08:18:10.261Z,17.60
2018-09-08T08:20:37.843Z,17.60
2018-09-08T08:23:05.445Z,17.60
2018-09-08T08:25:33.041Z,17.60
2018-09-08T08:28:00.619Z,17.70
2018-09-08T08:30:28.145Z,17.80
2018-09-08T08:32:55.911Z,17.70
2018-09-08T08:35:23.480Z,17.70
2018-09-08T08:37:51.094Z,17.80
2018-09-08T08:40:18.652Z,17.90
2018-09-08T08:42:46.300Z,17.90
2018-09-08T08:45:13.882Z,18.00
2018-09-08T08:47:41.466Z,18.00
2018-09-08T08:50:20.415Z,18.10
2018-09-08T08:52:59.386Z,18.10
2018-09-08T08:55:26.994Z,18.10
2018-09-08T08:57:54.554Z,18.20
2018-09-08T09:00:22.136Z,18.40
2018-09-08T09:02:49.743Z,18.60
2018-09-08T09:05:17.366Z,18.70
2018-09-08T09:07:45.014Z,18.80
2018-09-08T09:10:12.599Z,18.90
2018-09-08T09:12:40.157Z,19.10
2018-09-08T09:15:08.189Z,19.20
2018-09-08T09:17:35.308Z,19.40
2018-09-08T09:21:11.886Z,19.50
2018-09-08T09:23:50.793Z,19.40
2018-09-08T09:26:18.366Z,19.50
2018-09-08T09:28:45.945Z,19.40
2018-09-08T09:31:13.525Z,19.40
2018-09-08T09:33:41.168Z,19.40
2018-09-08T09:36:08.769Z,19.50
2018-09-08T09:38:36.333Z,19.50
2018-09-08T09:41:03.901Z,19.60
2018-09-08T09:43:31.500Z,19.70
2018-09-08T09:45:59.056Z,19.80
2018-09-08T09:48:26.613Z,19.90
2018-09-08T09:50:54.241Z,20.00
2018-09-08T09:53:21.824Z,20.10
2018-09-08T09:55:49.382Z,20.20
2018-09-08T09:58:16.945Z,20.30
2018-09-08T10:00:50.245Z,20.40
2018-09-08T10:03:17.811Z,20.50
2018-09-08T10:05:45.422Z,20.50
2018-09-08T10:08:12.965Z,20.60
2018-09-08T10:10:40.529Z,20.60
2018-09-08T10:13:08.213Z,20.70
2018-09-08T10:15:35.777Z,20.90
2018-09-08T10:18:03.380Z,21.10
2018-09-08T10:20:30.955Z,21.20
2018-09-08T10:27:27.283Z,21.40
2018-09-08T10:29:54.885Z,21.60
2018-09-08T10:32:22.650Z,21.90
2018-09-08T10:34:50.250Z,22.00
2018-09-08T10:37:17.790Z,22.00
2018-09-08T10:39:45.383Z,21.80
2018-09-08T10:42:13.005Z,21.60
2018-09-08T10:44:40.600Z,21.40
2018-09-08T10:47:08.324Z,21.30
2018-09-08T10:49:35.944Z,21.40
2018-09-08T10:52:13.661Z,21.80
2018-09-08T10:54:41.265Z,22.20
2018-09-08T10:57:08.793Z,22.70
2018-09-08T10:59:36.380Z,23.10
2018-09-08T11:02:04.078Z,23.50
2018-09-08T11:04:31.509Z,23.90
2018-09-08T11:06:59.167Z,24.40
2018-09-08T11:09:26.735Z,24.80
2018-09-08T11:11:54.340Z,25.20
2018-09-08T11:14:21.915Z,25.60
2018-09-08T11:16:49.506Z,25.80
2018-09-08T11:19:17.087Z,26.00
2018-09-08T11:21:44.650Z,26.30
2018-09-08T11:24:12.418Z,26.60
2018-09-08T11:26:40.083Z,26.80
2018-09-08T11:29:07.728Z,27.00
2018-09-08T11:31:35.331Z,27.20
2018-09-08T11:34:02.957Z,26.90
2018-09-08T11:36:30.632Z,26.80
2018-09-08T11:38:58.941Z,26.90
2018-09-08T11:41:26.857Z,27.20
2018-09-08T11:43:54.561Z,27.40
2018-09-08T11:46:22.136Z,27.10
2018-09-08T11:48:49.714Z,26.60
2018-09-08T11:51:17.321Z,26.00
2018-09-08T11:53:44.925Z,25.60
2018-09-08T11:56:12.514Z,25.20
2018-09-08T11:58:40.105Z,25.40
2018-09-08T12:01:07.796Z,25.20
2018-09-08T12:03:35.348Z,25.00
2018-09-08T12:06:02.912Z,24.50
2018-09-08T12:08:31.612Z,24.40
2018-09-08T12:10:59.197Z,24.80
2018-09-08T12:13:26.774Z,25.20
2018-09-08T12:15:54.365Z,25.10
2018-09-08T12:18:21.925Z,24.90
2018-09-08T12:20:49.503Z,24.70
2018-09-08T12:23:17.079Z,24.50
2018-09-08T12:25:44.678Z,24.70
2018-09-08T12:28:12.254Z,25.10
2018-09-08T12:30:40.120Z,25.50
2018-09-08T12:33:07.685Z,25.70
2018-09-08T12:35:35.240Z,25.60
2018-09-08T12:38:02.852Z,25.60
2018-09-08T12:40:30.416Z,25.90
2018-09-08T12:42:57.991Z,26.10
2018-09-08T12:45:25.566Z,26.60
2018-09-08T12:47:53.179Z,27.10
2018-09-08T12:50:20.740Z,27.10
2018-09-08T12:52:48.317Z,27.20
2018-09-08T12:55:16.000Z,27.40
2018-09-08T12:57:43.595Z,27.80
2018-09-08T13:00:11.188Z,28.20
2018-09-08T13:02:38.783Z,28.60
2018-09-08T13:05:06.454Z,28.80
2018-09-08T13:07:34.058Z,29.10
2018-09-08T13:10:01.621Z,29.40
2018-09-08T13:12:29.195Z,29.70
2018-09-08T13:14:56.799Z,30.00
2018-09-08T13:17:24.365Z,30.10
2018-09-08T13:19:51.899Z,30.00
2018-09-08T13:22:19.458Z,29.50
2018-09-08T13:24:47.016Z,29.10
2018-09-08T13:27:14.548Z,28.80
2018-09-08T13:29:42.118Z,28.70
2018-09-08T13:32:09.669Z,28.80
2018-09-08T13:34:37.236Z,28.90
2018-09-08T13:37:04.814Z,28.70
2018-09-08T13:39:32.437Z,28.30
2018-09-08T13:41:59.942Z,27.70
2018-09-08T13:44:27.497Z,27.10
2018-09-08T13:46:55.107Z,26.40
2018-09-08T13:49:22.603Z,26.20
2018-09-08T13:51:50.311Z,26.50
2018-09-08T13:54:17.878Z,27.20
2018-09-08T13:56:45.439Z,27.80
2018-09-08T13:59:12.955Z,28.40
2018-09-08T14:01:40.552Z,28.90
2018-09-08T14:04:08.154Z,29.30
2018-09-08T14:06:35.690Z,29.70
2018-09-08T14:09:03.627Z,30.10
2018-09-08T14:11:31.207Z,30.30
2018-09-08T14:13:58.783Z,30.40
2018-09-08T14:16:26.341Z,30.40
2018-09-08T14:18:53.950Z,30.30
2018-09-08T14:21:21.506Z,30.30
2018-09-08T14:23:49.058Z,30.40
2018-09-08T14:26:16.633Z,30.40
2018-09-08T14:28:44.368Z,30.40
2018-09-08T14:31:11.845Z,30.40
2018-09-08T14:33:39.412Z,30.50
2018-09-08T14:36:06.999Z,30.70
2018-09-08T14:38:34.560Z,30.90
2018-09-08T14:41:02.093Z,31.00
2018-09-08T14:43:29.598Z,31.10
2018-09-08T14:45:57.157Z,31.20
2018-09-08T14:48:24.707Z,31.30
2018-09-08T14:50:52.254Z,31.30
2018-09-08T14:53:19.823Z,31.20
2018-09-08T14:55:47.407Z,31.10
2018-09-08T14:58:15.037Z,30.90
2018-09-08T15:00:42.594Z,30.80
2018-09-08T15:03:10.173Z,30.50
2018-09-08T15:05:37.738Z,29.80
2018-09-08T15:08:05.530Z,28.90
2018-09-08T15:10:33.095Z,28.00
2018-09-08T15:13:00.643Z,27.30
2018-09-08T15:15:28.221Z,26.70
2018-09-08T15:17:55.852Z,26.70
2018-09-08T15:20:23.474Z,26.60
2018-09-08T15:22:51.030Z,26.30
2018-09-08T15:25:18.606Z,26.20
2018-09-08T15:27:46.182Z,26.60
2018-09-08T15:30:13.717Z,27.00
2018-09-08T15:32:41.384Z,27.60
2018-09-08T15:35:08.905Z,28.20
2018-09-08T15:37:36.466Z,28.50
2018-09-08T15:40:04.205Z,28.80
2018-09-08T15:42:31.887Z,29.10
2018-09-08T15:44:59.447Z,29.30
2018-09-08T15:47:27.000Z,29.40
2018-09-08T15:49:54.576Z,29.50
2018-09-08T15:52:22.119Z,29.60
2018-09-08T15:54:49.690Z,29.60
2018-09-08T15:57:17.251Z,29.60
2018-09-08T15:59:44.851Z,29.60
2018-09-08T16:02:12.423Z,29.50
2018-09-08T16:04:39.992Z,29.30
2018-09-08T16:07:07.699Z,28.90
2018-09-08T16:09:35.269Z,28.50
2018-09-08T16:12:02.790Z,28.20
2018-09-08T16:14:30.488Z,28.20
2018-09-08T16:16:58.029Z,28.10
2018-09-08T16:19:25.637Z,28.10
2018-09-08T16:21:53.192Z,28.10
2018-09-08T16:24:20.780Z,28.00
2018-09-08T16:26:48.311Z,27.80
2018-09-08T16:29:15.932Z,27.70
2018-09-08T16:31:43.594Z,27.60
2018-09-08T16:34:11.208Z,27.50
2018-09-08T16:36:38.830Z,27.50
2018-09-08T16:39:08.580Z,27.40
2018-09-08T16:41:36.225Z,27.20
2018-09-08T16:44:03.880Z,27.00
2018-09-08T16:46:31.501Z,26.70
2018-09-08T16:48:59.075Z,26.40
2018-09-08T16:51:26.683Z,26.10
2018-09-08T16:53:54.286Z,25.70
2018-09-08T16:56:21.883Z,25.30
2018-09-08T16:58:49.464Z,24.80
2018-09-08T17:01:17.040Z,24.50
2018-09-08T17:03:44.844Z,24.20
2018-09-08T17:06:12.433Z,23.90
2018-09-08T17:08:40.054Z,23.70
2018-09-08T17:11:07.700Z,23.50
2018-09-08T17:13:35.401Z,23.30
2018-09-08T17:16:03.022Z,23.10
2018-09-08T17:18:30.682Z,22.90
2018-09-08T17:20:58.331Z,22.70
2018-09-08T17:23:25.932Z,22.40
2018-09-08T17:25:53.558Z,22.20
2018-09-08T17:28:21.314Z,21.90
2018-09-08T17:30:48.970Z,21.70
2018-09-08T17:33:16.559Z,21.50
2018-09-08T17:35:44.216Z,21.30
2018-09-08T17:38:11.817Z,21.10
2018-09-08T17:40:39.421Z,20.90
2018-09-08T17:43:07.018Z,20.70
2018-09-08T17:45:34.603Z,20.60
2018-09-08T17:48:02.206Z,20.40
2018-09-08T17:50:29.847Z,20.30
2018-09-08T17:52:57.422Z,20.10
2018-09-08T17:55:24.964Z,20.00
2018-09-08T17:57:52.543Z,19.80
2018-09-08T18:00:20.258Z,19.70
2018-09-08T18:02:47.867Z,19.60
2018-09-08T18:05:15.510Z,19.50
2018-09-08T18:07:43.172Z,19.40
2018-09-08T18:10:10.733Z,19.30
2018-09-08T18:12:38.436Z,19.20
2018-09-08T18:15:06.697Z,19.10
2018-09-08T18:17:34.302Z,19.00
2018-09-08T18:20:01.924Z,18.80
2018-09-08T18:22:29.597Z,18.70
2018-09-08T18:24:57.310Z,18.60
2018-09-08T18:27:25.129Z,18.50
2018-09-08T18:29:52.740Z,18.40
2018-09-08T18:32:20.366Z,18.30
2018-09-08T18:34:48.110Z,18.30
2018-09-08T18:37:15.812Z,18.20
2018-09-08T18:39:43.497Z,18.10
2018-09-08T18:42:11.213Z,18.00
2018-09-08T18:44:38.956Z,18.00
2018-09-08T18:47:06.803Z,17.90
2018-09-08T18:49:34.451Z,17.80
2018-09-08T18:52:02.104Z,17.80
2018-09-08T18:54:29.785Z,17.70
2018-09-08T18:56:57.397Z,17.60
2018-09-08T18:59:25.074Z,17.50
2018-09-08T19:01:53.101Z,17.40
2018-09-08T19:04:20.825Z,17.30
2018-09-08T19:06:48.570Z,17.30
2018-09-08T19:09:16.218Z,17.20
2018-09-08T19:11:45.772Z,17.10
2018-09-08T19:15:20.600Z,17.00
2018-09-08T19:17:48.228Z,17.00
2018-09-08T19:20:21.431Z,16.90
2018-09-08T19:22:49.788Z,16.80
2018-09-08T19:25:17.517Z,16.80
2018-09-08T19:27:46.104Z,16.70
2018-09-08T19:30:13.824Z,16.70
2018-09-08T19:32:41.513Z,16.60
2018-09-08T19:35:14.756Z,16.50
2018-09-08T19:37:42.455Z,16.40
2018-09-08T19:40:16.436Z,16.40
2018-09-08T19:42:44.179Z,16.40
2018-09-08T19:45:12.417Z,16.30
2018-09-08T19:47:46.556Z,16.30
2018-09-08T19:50:14.737Z,16.30
2018-09-08T19:52:48.058Z,16.30
2018-09-08T19:55:15.701Z,16.20
2018-09-08T19:57:49.005Z,16.10
2018-09-08T20:00:16.752Z,16.10
2018-09-08T20:02:44.469Z,16.00
2018-09-08T20:05:12.181Z,16.00
2018-09-08T20:07:40.561Z,15.90
2018-09-08T20:10:08.322Z,15.90
2018-09-08T20:12:36.066Z,15.80
2018-09-08T20:15:03.995Z,15.80
2018-09-08T20:17:32.694Z,15.90
2018-09-08T20:20:00.468Z,15.80
2018-09-08T20:22:28.293Z,15.80
2018-09-08T20:24:56.029Z,15.80
2018-09-08T20:27:23.705Z,15.70
2018-09-08T20:29:51.405Z,15.70
2018-09-08T20:32:19.664Z,15.60
2018-09-08T20:34:47.279Z,15.60
2018-09-08T20:37:15.127Z,15.60
2018-09-08T20:39:43.628Z,15.50
2018-09-08T20:42:11.361Z,15.50
2018-09-08T20:44:39.050Z,15.40
2018-09-08T20:47:06.807Z,15.40
2018-09-08T20:49:34.504Z,15.40
2018-09-08T20:52:02.575Z,15.40
2018-09-08T20:54:30.240Z,15.30
2018-09-08T20:56:57.948Z,15.30
2018-09-08T20:59:25.624Z,15.30
2018-09-08T21:01:53.303Z,15.20
2018-09-08T21:04:20.987Z,15.20
2018-09-08T21:06:48.908Z,15.20
2018-09-08T21:09:16.560Z,15.20
2018-09-08T21:11:44.234Z,15.20
2018-09-08T21:14:11.873Z,15.10
2018-09-08T21:16:39.590Z,15.10
2018-09-08T21:19:07.270Z,15.10
2018-09-08T21:21:35.157Z,15.10
2018-09-08T21:24:02.781Z,15.00
2018-09-08T21:26:30.379Z,14.90
2018-09-08T21:28:57.981Z,14.90
2018-09-08T21:31:25.662Z,14.90
2018-09-08T21:33:53.299Z,14.80
2018-09-08T21:36:20.869Z,14.80
2018-09-08T21:38:48.482Z,14.80
2018-09-08T21:41:16.148Z,14.70
2018-09-08T21:43:43.730Z,14.70
2018-09-08T21:46:11.343Z,14.70
2018-09-08T21:48:38.924Z,14.70
2018-09-08T21:51:06.533Z,14.60
2018-09-08T21:53:34.094Z,14.60
2018-09-08T21:56:01.715Z,14.60
2018-09-08T21:58:29.303Z,14.60
2018-09-08T22:01:01.440Z,14.50
2018-09-08T22:03:29.014Z,14.50
2018-09-08T22:05:56.687Z,14.50
2018-09-08T22:08:24.223Z,14.50
2018-09-08T22:10:51.881Z,14.40
2018-09-08T22:13:19.447Z,14.40
2018-09-08T22:15:47.043Z,14.40
2018-09-08T22:18:14.618Z,14.30
2018-09-08T22:20:42.183Z,14.30
2018-09-08T22:23:10.713Z,14.30
2018-09-08T22:25:38.287Z,14.20
2018-09-08T22:28:05.953Z,14.20
2018-09-08T22:30:33.575Z,14.20
2018-09-08T22:33:01.117Z,14.20
2018-09-08T22:35:28.716Z,14.10
2018-09-08T22:37:56.265Z,14.10
2018-09-08T22:40:23.853Z,14.00
2018-09-08T22:42:51.387Z,14.00
2018-09-08T22:45:18.943Z,14.00
2018-09-08T22:47:46.547Z,14.00
2018-09-08T22:50:14.209Z,14.00
2018-09-08T22:52:41.781Z,13.90
2018-09-08T22:55:09.343Z,13.90
2018-09-08T22:57:36.906Z,13.90
2018-09-08T23:00:04.590Z,13.90
2018-09-08T23:02:32.136Z,13.90
2018-09-08T23:04:59.700Z,13.80
2018-09-08T23:07:27.332Z,13.80
2018-09-08T23:09:54.887Z,13.80
2018-09-08T23:12:22.526Z,13.70
2018-09-08T23:14:50.102Z,13.70
2018-09-08T23:17:17.686Z,13.70
2018-09-08T23:19:45.236Z,13.70
2018-09-08T23:22:12.796Z,13.60
2018-09-08T23:24:40.392Z,13.60
2018-09-08T23:27:08.017Z,13.60
2018-09-08T23:29:35.538Z,13.60
2018-09-08T23:32:03.135Z,13.50
2018-09-08T23:34:30.694Z,13.50
2018-09-08T23:36:58.262Z,13.50
2018-09-08T23:39:25.814Z,13.50
2018-09-08T23:41:53.425Z,13.50
2018-09-08T23:44:20.957Z,13.50
2018-09-08T23:46:48.498Z,13.50
2018-09-08T23:49:16.036Z,13.40
2018-09-08T23:51:43.586Z,13.40
2018-09-08T23:54:11.137Z,13.40
2018-09-08T23:56:38.680Z,13.40
2018-09-08T23:59:06.310Z,13.40
